Vinh Hung — XVFL — position and weather

sailwx.info

Track history (hours):
 
Tides and Currents Weather Stations Pressure Air Temp Water Temp Dewpoint Dewpoint Depression Visibility Wind Speed Wind Dir Waves Ship Positions

Vinh Hung

Last reported at 2017-May-22 05:24 UTC. Time now 2017-May-23 01:13 UTC.
Position N 01°14' E 104°01'.

Length 103 m; draft 7.1 m.

Type: Cargo ship. MMSI: 574206000.

Date/timePositionNaut miles runAvg speedWind from/ knotsBaromVisibWave heightAir tempDewpointWater temp
2017-May-22 05:24N 01°14' E 104°01'4 9.6
2017-May-22 05:00N 01°14' E 103°58'5 9.8
2017-May-22 04:30N 01°12' E 103°53'611.5
2017-May-22 04:00N 01°09' E 103°48'510.9
2017-May-22 03:30N 01°06' E 103°44'510.4
2017-May-22 02:59N 01°03' E 103°39'4 8.9
2017-May-22 02:30N 01°05' E 103°35'5 9.3
2017-May-22 02:00N 01°07' E 103°31'5 9.0
2017-May-22 01:30N 01°09' E 103°27'67 8.9
2017-May-21 18:02N 01°46' E 102°31'0 8.6
2017-May-21 18:00N 01°46' E 102°31'4 8.4
2017-May-21 17:29N 01°48' E 102°27'5 8.5
2017-May-21 16:55N 01°50' E 102°23'239 8.5
2017-May-20 12:38N 05°08' E 100°09'2 9.1
2017-May-20 12:27N 05°10' E 100°09'5 9.2
2017-May-20 11:57N 05°14' E 100°08'4 9.0
2017-May-20 11:30N 05°18' E 100°07'4 8.4
2017-May-20 11:00N 05°22' E 100°07'4 8.6
2017-May-20 10:29N 05°27' E 100°07'5 7.6
2017-May-20 09:47N 05°31' E 100°11'2 8.6
2017-May-20 09:30N 05°32' E 100°13'5 7.5
2017-May-20 08:53N 05°32' E 100°17'3 8.9
2017-May-20 08:30N 05°30' E 100°20'5 9.6
2017-May-20 07:59N 05°25' E 100°21'2 4.0
2017-May-20 07:28N 05°23' E 100°22'0 0.0
2017-May-20 06:58N 05°23' E 100°22'0 0.0
2017-May-20 06:28N 05°23' E 100°22'0 0.0
2017-May-20 05:58N 05°23' E 100°22'0 0.0
2017-May-20 05:22N 05°23' E 100°22'0 0.0
2017-May-20 04:58N 05°23' E 100°22'0 0.0
2017-May-20 04:28N 05°23' E 100°22'0 0.0
2017-May-20 03:58N 05°23' E 100°22'0 0.0
2017-May-20 03:28N 05°23' E 100°22'0 0.0
2017-May-20 02:58N 05°23' E 100°22'0 0.0
2017-May-20 02:28N 05°23' E 100°22'0 0.0
2017-May-20 01:52N 05°23' E 100°22'0 0.0
2017-May-20 01:22N 05°23' E 100°22'0 0.0
2017-May-20 00:46N 05°23' E 100°22'0 0.0
2017-May-20 00:28N 05°23' E 100°22'0 0.0
2017-May-19 23:58N 05°23' E 100°22'0 0.0
2017-May-19 23:28N 05°23' E 100°22'0 0.0
2017-May-19 22:58N 05°23' E 100°22'0 0.0
2017-May-19 22:28N 05°23' E 100°22'0 0.0
2017-May-19 21:46N 05°23' E 100°22'0 0.0
2017-May-19 21:28N 05°23' E 100°22'0 0.0
2017-May-19 20:58N 05°23' E 100°22'0 0.0
2017-May-19 20:28N 05°23' E 100°22'0 0.0
2017-May-19 19:58N 05°23' E 100°22'0 0.0
2017-May-19 19:28N 05°23' E 100°22'0 0.0
2017-May-19 18:58N 05°23' E 100°22'0 0.0
2017-May-19 18:22N 05°23' E 100°22'0 0.0
2017-May-19 17:58N 05°23' E 100°22'0 0.0
2017-May-19 17:28N 05°23' E 100°22'0 0.0
2017-May-19 16:34N 05°23' E 100°22'0 0.0
2017-May-19 16:22N 05°23' E 100°22'0 0.0
2017-May-19 15:52N 05°23' E 100°22'0 0.0
2017-May-19 15:28N 05°23' E 100°22'0 0.0
2017-May-19 14:58N 05°23' E 100°22'0 0.0
2017-May-19 14:10N 05°23' E 100°22'0 0.0
2017-May-19 12:46N 05°23' E 100°22'0 0.0
2017-May-19 12:10N 05°23' E 100°22'0 0.0
2017-May-19 10:46N 05°23' E 100°22'0 0.0
2017-May-19 10:22N 05°23' E 100°22'0 0.0
2017-May-19 09:58N 05°23' E 100°22'0 0.0
2017-May-19 09:28N 05°23' E 100°22'0 0.0
2017-May-19 08:34N 05°23' E 100°22'0 0.0
2017-May-19 08:28N 05°23' E 100°22'0 0.0
2017-May-19 07:46N 05°23' E 100°22'0 0.0
2017-May-19 07:22N 05°23' E 100°22'0 0.0
2017-May-19 06:58N 05°23' E 100°22'0 0.0
2017-May-19 06:16N 05°23' E 100°22'0 0.0
2017-May-19 05:40N 05°23' E 100°22'0 0.0
2017-May-19 05:28N 05°23' E 100°22'0 0.0
2017-May-19 04:52N 05°23' E 100°22'0 0.0
2017-May-19 03:43N 05°23' E 100°22'0 0.0
2017-May-19 03:25N 05°23' E 100°22'0 0.0
2017-May-19 02:49N 05°23' E 100°22'0 0.0
2017-May-19 02:19N 05°23' E 100°22'0 0.0
2017-May-18 22:37N 05°23' E 100°22'0 0.0
2017-May-18 22:07N 05°23' E 100°22'0 0.0
2017-May-18 21:49N 05°23' E 100°22'0 0.0
2017-May-18 19:55N 05°23' E 100°22'0 0.0
2017-May-18 18:31N 05°23' E 100°22'0 0.0
2017-May-18 18:25N 05°23' E 100°22'0 0.0
2017-May-18 17:55N 05°23' E 100°22'0 0.0
2017-May-18 17:25N 05°23' E 100°22'0 0.0
2017-May-18 16:49N 05°23' E 100°22'0 0.0
2017-May-18 16:25N 05°23' E 100°22'0 0.0
2017-May-18 15:55N 05°23' E 100°22'0 0.0
2017-May-18 15:19N 05°23' E 100°22'0 0.0
2017-May-18 14:55N 05°23' E 100°22'0 0.0
2017-May-18 13:55N 05°23' E 100°22'0 0.0
2017-May-18 13:25N 05°23' E 100°22'0 0.0
2017-May-18 12:55N 05°23' E 100°22'0 0.0
2017-May-18 09:25N 05°23' E 100°22'0 0.0
2017-May-18 07:31N 05°23' E 100°22'0 0.0
2017-May-18 07:19N 05°23' E 100°22'0 0.0
2017-May-18 06:49N 05°23' E 100°22'0 0.0
2017-May-18 06:25N 05°23' E 100°22'0 0.0
2017-May-18 05:37N 05°23' E 100°22'0 0.0
2017-May-18 05:19N 05°23' E 100°22'0 0.0
2017-May-18 03:13N 05°23' E 100°22'0 0.0
2017-May-18 02:55N 05°23' E 100°22'0 0.0
2017-May-18 02:25N 05°23' E 100°22'0 0.0
2017-May-18 01:55N 05°23' E 100°22'0 0.0
2017-May-18 01:25N 05°23' E 100°22'0 0.0
2017-May-18 00:43N 05°23' E 100°22'0 0.0
2017-May-18 00:25N 05°23' E 100°22'0 0.0
2017-May-17 23:55N 05°23' E 100°22'0 0.0
2017-May-17 21:49N 05°23' E 100°22'0 0.0
2017-May-17 21:25N 05°23' E 100°22'0 0.0
2017-May-17 20:55N 05°23' E 100°22'0 0.0
2017-May-17 20:13N 05°23' E 100°22'0 0.0
2017-May-17 18:07N 05°23' E 100°22'0 0.0
2017-May-17 17:55N 05°23' E 100°22'0 0.0
2017-May-17 17:07N 05°23' E 100°22'0 0.0
2017-May-17 16:07N 05°23' E 100°22'0 0.0
2017-May-17 15:49N 05°23' E 100°22'0 0.0
2017-May-17 13:55N 05°23' E 100°22'0 0.0
2017-May-17 13:25N 05°23' E 100°22'0 0.0
2017-May-17 12:55N 05°23' E 100°22'0 0.0
2017-May-17 03:55N 05°23' E 100°22'0 0.0
2017-May-17 02:16N 05°23' E 100°22'0 1.8
2017-May-17 02:01N 05°23' E 100°22'4 7.9
2017-May-17 01:30N 05°27' E 100°21'5 8.6
2017-May-17 00:58N 05°31' E 100°18'4 9.0
2017-May-17 00:31N 05°32' E 100°14'7 7.2
2017-May-16 23:28N 05°28' E 100°07'4 7.9
2017-May-16 23:00N 05°24' E 100°07'4 7.9
2017-May-16 22:29N 05°20' E 100°06'1 1.1
2017-May-16 22:00N 05°20' E 100°07'5 8.4
2017-May-16 21:27N 05°15' E 100°07'1 2.6
2017-May-16 21:01N 05°14' E 100°07'1 2.0
2017-May-16 20:25N 05°15' E 100°07'4 8.2
2017-May-16 19:59N 05°12' E 100°08'  
Track history (hours):
 
Tides and Currents Weather Stations Pressure Air Temp Water Temp Dewpoint Dewpoint Depression Visibility Wind Speed Wind Dir Waves Ship Positions

Vinh Hung

Last reported at 2017-May-22 05:24 UTC. Time now 2017-May-23 01:13 UTC.
Position N 01°14' E 104°01'.

Length 103 m; draft 7.1 m.

Type: Cargo ship. MMSI: 574206000.

Date/timePositionNaut miles runAvg speedWind from/ knotsBaromVisibWave heightAir tempDewpointWater temp
2017-May-22 05:24N 01°14' E 104°01'4 9.6
2017-May-22 05:00N 01°14' E 103°58'5 9.8
2017-May-22 04:30N 01°12' E 103°53'611.5
2017-May-22 04:00N 01°09' E 103°48'510.9
2017-May-22 03:30N 01°06' E 103°44'510.4
2017-May-22 02:59N 01°03' E 103°39'4 8.9
2017-May-22 02:30N 01°05' E 103°35'5 9.3
2017-May-22 02:00N 01°07' E 103°31'5 9.0
2017-May-22 01:30N 01°09' E 103°27'67 8.9
2017-May-21 18:02N 01°46' E 102°31'0 8.6
2017-May-21 18:00N 01°46' E 102°31'4 8.4
2017-May-21 17:29N 01°48' E 102°27'5 8.5
2017-May-21 16:55N 01°50' E 102°23'239 8.5
2017-May-20 12:38N 05°08' E 100°09'2 9.1
2017-May-20 12:27N 05°10' E 100°09'5 9.2
2017-May-20 11:57N 05°14' E 100°08'4 9.0
2017-May-20 11:30N 05°18' E 100°07'4 8.4
2017-May-20 11:00N 05°22' E 100°07'4 8.6
2017-May-20 10:29N 05°27' E 100°07'5 7.6
2017-May-20 09:47N 05°31' E 100°11'2 8.6
2017-May-20 09:30N 05°32' E 100°13'5 7.5
2017-May-20 08:53N 05°32' E 100°17'3 8.9
2017-May-20 08:30N 05°30' E 100°20'5 9.6
2017-May-20 07:59N 05°25' E 100°21'2 4.0
2017-May-20 07:28N 05°23' E 100°22'0 0.0
2017-May-20 06:58N 05°23' E 100°22'0 0.0
2017-May-20 06:28N 05°23' E 100°22'0 0.0
2017-May-20 05:58N 05°23' E 100°22'0 0.0
2017-May-20 05:22N 05°23' E 100°22'0 0.0
2017-May-20 04:58N 05°23' E 100°22'0 0.0
2017-May-20 04:28N 05°23' E 100°22'0 0.0
2017-May-20 03:58N 05°23' E 100°22'0 0.0
2017-May-20 03:28N 05°23' E 100°22'0 0.0
2017-May-20 02:58N 05°23' E 100°22'0 0.0
2017-May-20 02:28N 05°23' E 100°22'0 0.0
2017-May-20 01:52N 05°23' E 100°22'0 0.0
2017-May-20 01:22N 05°23' E 100°22'0 0.0
2017-May-20 00:46N 05°23' E 100°22'0 0.0
2017-May-20 00:28N 05°23' E 100°22'0 0.0
2017-May-19 23:58N 05°23' E 100°22'0 0.0
2017-May-19 23:28N 05°23' E 100°22'0 0.0
2017-May-19 22:58N 05°23' E 100°22'0 0.0
2017-May-19 22:28N 05°23' E 100°22'0 0.0
2017-May-19 21:46N 05°23' E 100°22'0 0.0
2017-May-19 21:28N 05°23' E 100°22'0 0.0
2017-May-19 20:58N 05°23' E 100°22'0 0.0
2017-May-19 20:28N 05°23' E 100°22'0 0.0
2017-May-19 19:58N 05°23' E 100°22'0 0.0
2017-May-19 19:28N 05°23' E 100°22'0 0.0
2017-May-19 18:58N 05°23' E 100°22'0 0.0
2017-May-19 18:22N 05°23' E 100°22'0 0.0
2017-May-19 17:58N 05°23' E 100°22'0 0.0
2017-May-19 17:28N 05°23' E 100°22'0 0.0
2017-May-19 16:34N 05°23' E 100°22'0 0.0
2017-May-19 16:22N 05°23' E 100°22'0 0.0
2017-May-19 15:52N 05°23' E 100°22'0 0.0
2017-May-19 15:28N 05°23' E 100°22'0 0.0
2017-May-19 14:58N 05°23' E 100°22'0 0.0
2017-May-19 14:10N 05°23' E 100°22'0 0.0
2017-May-19 12:46N 05°23' E 100°22'0 0.0
2017-May-19 12:10N 05°23' E 100°22'0 0.0
2017-May-19 10:46N 05°23' E 100°22'0 0.0
2017-May-19 10:22N 05°23' E 100°22'0 0.0
2017-May-19 09:58N 05°23' E 100°22'0 0.0
2017-May-19 09:28N 05°23' E 100°22'0 0.0
2017-May-19 08:34N 05°23' E 100°22'0 0.0
2017-May-19 08:28N 05°23' E 100°22'0 0.0
2017-May-19 07:46N 05°23' E 100°22'0 0.0
2017-May-19 07:22N 05°23' E 100°22'0 0.0
2017-May-19 06:58N 05°23' E 100°22'0 0.0
2017-May-19 06:16N 05°23' E 100°22'0 0.0
2017-May-19 05:40N 05°23' E 100°22'0 0.0
2017-May-19 05:28N 05°23' E 100°22'0 0.0
2017-May-19 04:52N 05°23' E 100°22'0 0.0
2017-May-19 03:43N 05°23' E 100°22'0 0.0
2017-May-19 03:25N 05°23' E 100°22'0 0.0
2017-May-19 02:49N 05°23' E 100°22'0 0.0
2017-May-19 02:19N 05°23' E 100°22'0 0.0
2017-May-18 22:37N 05°23' E 100°22'0 0.0
2017-May-18 22:07N 05°23' E 100°22'0 0.0
2017-May-18 21:49N 05°23' E 100°22'0 0.0
2017-May-18 19:55N 05°23' E 100°22'0 0.0
2017-May-18 18:31N 05°23' E 100°22'0 0.0
2017-May-18 18:25N 05°23' E 100°22'0 0.0
2017-May-18 17:55N 05°23' E 100°22'0 0.0
2017-May-18 17:25N 05°23' E 100°22'0 0.0
2017-May-18 16:49N 05°23' E 100°22'0 0.0
2017-May-18 16:25N 05°23' E 100°22'0 0.0
2017-May-18 15:55N 05°23' E 100°22'0 0.0
2017-May-18 15:19N 05°23' E 100°22'0 0.0
2017-May-18 14:55N 05°23' E 100°22'0 0.0
2017-May-18 13:55N 05°23' E 100°22'0 0.0
2017-May-18 13:25N 05°23' E 100°22'0 0.0
2017-May-18 12:55N 05°23' E 100°22'0 0.0
2017-May-18 09:25N 05°23' E 100°22'0 0.0
2017-May-18 07:31N 05°23' E 100°22'0 0.0
2017-May-18 07:19N 05°23' E 100°22'0 0.0
2017-May-18 06:49N 05°23' E 100°22'0 0.0
2017-May-18 06:25N 05°23' E 100°22'0 0.0
2017-May-18 05:37N 05°23' E 100°22'0 0.0
2017-May-18 05:19N 05°23' E 100°22'0 0.0
2017-May-18 03:13N 05°23' E 100°22'0 0.0
2017-May-18 02:55N 05°23' E 100°22'0 0.0
2017-May-18 02:25N 05°23' E 100°22'0 0.0
2017-May-18 01:55N 05°23' E 100°22'0 0.0
2017-May-18 01:25N 05°23' E 100°22'0 0.0
2017-May-18 00:43N 05°23' E 100°22'0 0.0
2017-May-18 00:25N 05°23' E 100°22'0 0.0
2017-May-17 23:55N 05°23' E 100°22'0 0.0
2017-May-17 21:49N 05°23' E 100°22'0 0.0
2017-May-17 21:25N 05°23' E 100°22'0 0.0
2017-May-17 20:55N 05°23' E 100°22'0 0.0
2017-May-17 20:13N 05°23' E 100°22'0 0.0
2017-May-17 18:07N 05°23' E 100°22'0 0.0
2017-May-17 17:55N 05°23' E 100°22'0 0.0
2017-May-17 17:07N 05°23' E 100°22'0 0.0
2017-May-17 16:07N 05°23' E 100°22'0 0.0
2017-May-17 15:49N 05°23' E 100°22'0 0.0
2017-May-17 13:55N 05°23' E 100°22'0 0.0
2017-May-17 13:25N 05°23' E 100°22'0 0.0
2017-May-17 12:55N 05°23' E 100°22'0 0.0
2017-May-17 03:55N 05°23' E 100°22'0 0.0
2017-May-17 02:16N 05°23' E 100°22'0 1.8
2017-May-17 02:01N 05°23' E 100°22'4 7.9
2017-May-17 01:30N 05°27' E 100°21'5 8.6
2017-May-17 00:58N 05°31' E 100°18'4 9.0
2017-May-17 00:31N 05°32' E 100°14'7 7.2
2017-May-16 23:28N 05°28' E 100°07'4 7.9
2017-May-16 23:00N 05°24' E 100°07'4 7.9
2017-May-16 22:29N 05°20' E 100°06'1 1.1
2017-May-16 22:00N 05°20' E 100°07'5 8.4
2017-May-16 21:27N 05°15' E 100°07'1 2.6
2017-May-16 21:01N 05°14' E 100°07'1 2.0
2017-May-16 20:25N 05°15' E 100°07'4 8.2
2017-May-16 19:59N 05°12' E 100°08'  

Dump ship's entire track history